Time;durP1;ratioP1;P1;durP2;ratioP2;P2;SDS_P1;SDS_P2;PMS_P1;PMS_P2;Temp;Humidity;BMP_temperature;BMP_pressure;BME280_temperature;BME280_humidity;BME280_pressure;Samples;Min_cycle;Max_cycle;Signal;HPM_P1;HPM_P2
2021/10/27 00:03:18;;;;;;;44.92;18.58;;;;;;;;;;8195138;28;20521;-69
2021/10/27 00:07:24;;;;;;;50.55;20.40;;;;;;;;;;8216697;28;20064;-71
2021/10/27 00:11:29;;;;;;;48.40;18.20;;;;;;;;;;8225453;28;20492;-69
2021/10/27 00:15:35;;;;;;;41.15;17.98;;;;;;;;;;8225408;28;20361;-71
2021/10/27 00:19:40;;;;;;;43.55;17.88;;;;;;;;;;8227387;28;20045;-70
2021/10/27 00:23:45;;;;;;;42.80;17.92;;;;;;;;;;8225078;28;20041;-70
2021/10/27 00:27:51;;;;;;;38.63;17.45;;;;;;;;;;8224155;28;20037;-71
2021/10/27 00:31:56;;;;;;;46.15;17.13;;;;;;;;;;8224592;28;20441;-70
2021/10/27 00:36:01;;;;;;;43.58;18.52;;;;;;;;;;8223457;28;20381;-70
2021/10/27 00:40:07;;;;;;;45.85;19.05;;;;;;;;;;8225350;28;20377;-70
2021/10/27 00:44:25;;;;;;;44.85;18.52;;;;;;;;;;8224110;28;20037;-70
2021/10/27 00:48:30;;;;;;;38.20;17.55;;;;;;;;;;8223523;28;20419;-71
2021/10/27 00:52:36;;;;;;;39.45;18.23;;;;;;;;;;8225056;28;20053;-69
2021/10/27 00:56:41;;;;;;;40.45;16.35;;;;;;;;;;8224724;28;20457;-71
2021/10/27 01:00:47;;;;;;;37.53;18.50;;;;;;;;;;8224723;28;20377;-71
2021/10/27 01:04:52;;;;;;;37.05;17.83;;;;;;;;;;8224567;28;20449;-71
2021/10/27 01:08:57;;;;;;;39.85;16.85;;;;;;;;;;8223875;28;20029;-71
2021/10/27 01:13:03;;;;;;;40.60;17.92;;;;;;;;;;8208198;28;20076;-69
2021/10/27 01:17:11;;;;;;;40.85;16.88;;;;;;;;;;8220299;28;20510;-71
2021/10/27 01:21:21;;;;;;;39.28;17.10;;;;;;;;;;8226868;28;20075;-71
2021/10/27 01:25:26;;;;;;;38.90;17.83;;;;;;;;;;8230690;28;20351;-70
2021/10/27 01:29:31;;;;;;;44.97;20.55;;;;;;;;;;8229986;28;20350;-71
2021/10/27 01:33:38;;;;;;;41.65;18.73;;;;;;;;;;8213883;28;20492;-71
2021/10/27 01:37:44;;;;;;;48.45;21.77;;;;;;;;;;8229608;28;20420;-70
2021/10/27 01:41:50;;;;;;;38.38;17.73;;;;;;;;;;8229052;28;20487;-71
2021/10/27 01:45:55;;;;;;;46.53;19.75;;;;;;;;;;8230574;28;20491;-71
2021/10/27 01:50:01;;;;;;;34.38;16.05;;;;;;;;;;8229470;28;20368;-70
2021/10/27 01:54:09;;;;;;;44.70;17.13;;;;;;;;;;8230873;28;20071;-70
2021/10/27 01:58:14;;;;;;;37.67;15.15;;;;;;;;;;8229137;28;20491;-70
2021/10/27 02:02:19;;;;;;;35.17;15.10;;;;;;;;;;8230910;28;20461;-70
2021/10/27 02:06:24;;;;;;;33.75;15.30;;;;;;;;;;8229408;28;20471;-71
2021/10/27 02:10:29;;;;;;;39.05;15.75;;;;;;;;;;8227714;28;20052;-72
2021/10/27 02:14:35;;;;;;;47.15;17.67;;;;;;;;;;8229000;28;20495;-71
2021/10/27 02:18:40;;;;;;;38.00;17.35;;;;;;;;;;8227763;28;20356;-71
2021/10/27 02:22:46;;;;;;;29.02;15.60;;;;;;;;;;8229142;28;20049;-70
2021/10/27 02:26:52;;;;;;;37.95;16.17;;;;;;;;;;8232504;28;20364;-69
2021/10/27 02:30:57;;;;;;;38.65;15.98;;;;;;;;;;8228245;28;20465;-70
2021/10/27 02:35:02;;;;;;;32.75;15.95;;;;;;;;;;8228182;28;20352;-69
2021/10/27 02:39:08;;;;;;;41.25;16.42;;;;;;;;;;8226801;28;20360;-71
2021/10/27 02:43:15;;;;;;;36.17;15.50;;;;;;;;;;8228275;28;20445;-70
2021/10/27 02:47:21;;;;;;;45.15;17.13;;;;;;;;;;8228259;28;20037;-69
2021/10/27 02:51:26;;;;;;;32.35;15.00;;;;;;;;;;8228994;28;20063;-71
2021/10/27 02:55:31;;;;;;;36.10;15.00;;;;;;;;;;8226454;28;20477;-69
2021/10/27 02:59:36;;;;;;;30.92;14.63;;;;;;;;;;8228295;28;20457;-71
2021/10/27 03:03:41;;;;;;;33.80;13.40;;;;;;;;;;8229496;28;20376;-70
2021/10/27 03:07:46;;;;;;;29.90;14.48;;;;;;;;;;8227836;28;20460;-70
2021/10/27 03:11:53;;;;;;;34.80;16.63;;;;;;;;;;8226521;28;20464;-71
2021/10/27 03:15:58;;;;;;;36.05;15.50;;;;;;;;;;8226306;28;20054;-69
2021/10/27 03:20:04;;;;;;;37.03;16.42;;;;;;;;;;8226098;28;20476;-70
2021/10/27 03:24:09;;;;;;;34.78;15.85;;;;;;;;;;8225792;28;20388;-70
2021/10/27 03:28:15;;;;;;;45.50;16.55;;;;;;;;;;8227403;28;20461;-69
2021/10/27 03:32:20;;;;;;;36.75;16.13;;;;;;;;;;8226725;28;20053;-69
2021/10/27 03:36:26;;;;;;;39.00;17.20;;;;;;;;;;8229240;28;20064;-70
2021/10/27 03:40:31;;;;;;;37.95;15.50;;;;;;;;;;8227614;28;20091;-69
2021/10/27 03:44:37;;;;;;;32.72;17.20;;;;;;;;;;8226728;28;20336;-70
2021/10/27 03:48:42;;;;;;;34.90;16.42;;;;;;;;;;8226461;28;20353;-72
2021/10/27 03:52:47;;;;;;;36.95;16.05;;;;;;;;;;8227924;28;20453;-69
2021/10/27 03:56:53;;;;;;;35.30;15.25;;;;;;;;;;8226503;28;20477;-70
2021/10/27 04:00:58;;;;;;;42.53;16.38;;;;;;;;;;8227670;28;20338;-70
2021/10/27 04:05:03;;;;;;;38.00;16.20;;;;;;;;;;8225984;28;20041;-70
2021/10/27 04:09:09;;;;;;;37.20;15.30;;;;;;;;;;8225293;28;20361;-70
2021/10/27 04:13:19;;;;;;;38.60;16.88;;;;;;;;;;8227047;28;20468;-70
2021/10/27 04:17:24;;;;;;;32.67;16.00;;;;;;;;;;8207528;28;20072;-70
2021/10/27 04:21:29;;;;;;;35.22;16.45;;;;;;;;;;8225740;28;20053;-71
2021/10/27 04:25:35;;;;;;;47.13;18.67;;;;;;;;;;8225367;28;20350;-71
2021/10/27 04:29:40;;;;;;;57.70;21.67;;;;;;;;;;8226116;28;20469;-70
2021/10/27 04:33:50;;;;;;;69.60;24.88;;;;;;;;;;8225597;28;20376;-70
2021/10/27 04:37:55;;;;;;;80.28;24.60;;;;;;;;;;8225413;28;20068;-72
2021/10/27 04:42:00;;;;;;;107.78;30.13;;;;;;;;;;8226290;28;20403;-70
2021/10/27 04:46:05;;;;;;;75.00;25.75;;;;;;;;;;8223895;28;20360;-70
2021/10/27 04:50:12;;;;;;;45.53;19.88;;;;;;;;;;8224074;28;20360;-70
2021/10/27 04:54:17;;;;;;;61.05;23.60;;;;;;;;;;8223423;28;20365;-69
2021/10/27 04:58:22;;;;;;;58.30;22.13;;;;;;;;;;8223133;28;20353;-69
2021/10/27 05:02:28;;;;;;;69.85;24.30;;;;;;;;;;8222623;28;20461;-70
2021/10/27 05:06:34;;;;;;;56.30;20.98;;;;;;;;;;8225355;28;20364;-69
2021/10/27 05:10:39;;;;;;;48.08;21.30;;;;;;;;;;8227388;28;20396;-70
2021/10/27 05:14:44;;;;;;;49.40;22.17;;;;;;;;;;8223440;28;20037;-70
2021/10/27 05:18:50;;;;;;;61.13;23.05;;;;;;;;;;8191907;28;20060;-70
2021/10/27 05:22:55;;;;;;;55.08;24.20;;;;;;;;;;8193844;28;20465;-70
2021/10/27 05:27:00;;;;;;;59.13;23.35;;;;;;;;;;8191287;28;20445;-72
2021/10/27 05:31:06;;;;;;;41.45;20.05;;;;;;;;;;8192265;28;20457;-70
2021/10/27 05:35:11;;;;;;;42.53;19.17;;;;;;;;;;8190520;28;20369;-71
2021/10/27 05:39:17;;;;;;;47.30;20.23;;;;;;;;;;8128470;28;20469;-71
2021/10/27 05:43:25;;;;;;;37.60;17.65;;;;;;;;;;8194058;28;20372;-71
2021/10/27 05:47:30;;;;;;;48.10;19.10;;;;;;;;;;8190566;28;20049;-71
2021/10/27 05:51:40;;;;;;;48.15;20.60;;;;;;;;;;8191808;28;20064;-70
2021/10/27 05:55:46;;;;;;;37.83;17.35;;;;;;;;;;8192134;28;20446;-70
2021/10/27 05:59:51;;;;;;;40.40;19.13;;;;;;;;;;8192594;28;20408;-70
2021/10/27 06:03:57;;;;;;;45.35;18.20;;;;;;;;;;8191640;28;20042;-70
2021/10/27 06:08:03;;;;;;;36.53;17.13;;;;;;;;;;8192953;28;20243;-70
2021/10/27 06:12:13;;;;;;;39.53;18.33;;;;;;;;;;8196467;28;20457;-70
2021/10/27 06:16:18;;;;;;;46.92;19.92;;;;;;;;;;8208857;28;20130;-70
2021/10/27 06:20:23;;;;;;;41.28;19.70;;;;;;;;;;8228659;28;20399;-71
2021/10/27 06:24:30;;;;;;;36.65;17.83;;;;;;;;;;8229167;28;20041;-71
2021/10/27 06:28:42;;;;;;;39.25;19.13;;;;;;;;;;8231360;28;20081;-69
2021/10/27 06:32:55;;;;;;;55.85;24.10;;;;;;;;;;8229293;28;20050;-69
2021/10/27 06:37:12;;;;;;;47.90;20.98;;;;;;;;;;8227524;28;20361;-70
2021/10/27 06:46:23;;;;;;;36.20;18.88;;;;;;;;;;8228347;28;20603;-70
2021/10/27 06:50:29;;;;;;;39.60;18.23;;;;;;;;;;8227946;28;20056;-70
2021/10/27 06:54:34;;;;;;;41.92;17.95;;;;;;;;;;8226590;28;20045;-71
2021/10/27 06:58:45;;;;;;;30.10;15.77;;;;;;;;;;8226720;28;20479;-71
2021/10/27 07:03:07;;;;;;;31.58;15.98;;;;;;;;;;8226063;28;20045;-71
2021/10/27 07:15:56;;;;;;;36.10;15.15;;;;;;;;;;8226290;28;20487;-71
2021/10/27 07:20:08;;;;;;;30.88;15.05;;;;;;;;;;8223825;28;20053;-70
2021/10/27 07:24:15;;;;;;;31.35;17.30;;;;;;;;;;8226110;28;20230;-72
2021/10/27 07:28:20;;;;;;;28.67;15.65;;;;;;;;;;8229831;28;20456;-73
2021/10/27 07:32:27;;;;;;;29.67;15.88;;;;;;;;;;8226739;28;20085;-70
2021/10/27 07:40:52;;;;;;;28.17;16.33;;;;;;;;;;8204796;28;20460;-71
2021/10/27 07:44:58;;;;;;;25.17;14.70;;;;;;;;;;8226951;28;20053;-73
2021/10/27 07:49:03;;;;;;;32.45;14.45;;;;;;;;;;8225759;28;20372;-72
2021/10/27 07:53:11;;;;;;;29.48;15.00;;;;;;;;;;8226822;28;20045;-70
2021/10/27 07:57:16;;;;;;;27.98;13.85;;;;;;;;;;8226020;28;20510;-71
2021/10/27 08:01:21;;;;;;;21.40;13.48;;;;;;;;;;8226673;28;20046;-72
2021/10/27 08:05:30;;;;;;;29.10;14.32;;;;;;;;;;8227113;28;20462;-72
2021/10/27 08:09:36;;;;;;;;;;;;;;;;;;8226216;28;20503;-71
2021/10/27 08:13:41;;;;;;;27.25;13.48;;;;;;;;;;8226362;28;20336;-71
2021/10/27 08:17:48;;;;;;;20.52;11.65;;;;;;;;;;8225394;28;20472;-72
2021/10/27 08:21:58;;;;;;;22.98;11.60;;;;;;;;;;8225559;28;20049;-71
2021/10/27 08:26:07;;;;;;;23.85;11.30;;;;;;;;;;8223551;28;20053;-71
2021/10/27 08:30:14;;;;;;;19.23;10.75;;;;;;;;;;8226850;28;20444;-70
2021/10/27 08:34:21;;;;;;;21.10;10.80;;;;;;;;;;8223816;28;20053;-72
2021/10/27 08:38:26;;;;;;;19.85;9.80;;;;;;;;;;8224618;28;20393;-72
2021/10/27 08:42:32;;;;;;;18.73;9.27;;;;;;;;;;8224271;28;20050;-71
2021/10/27 08:46:37;;;;;;;18.50;10.25;;;;;;;;;;8208425;28;20348;-71
2021/10/27 08:50:48;;;;;;;24.25;8.68;;;;;;;;;;8223891;28;20356;-72
2021/10/27 08:54:54;;;;;;;14.50;8.00;;;;;;;;;;8223422;28;20072;-71
2021/10/27 08:59:07;;;;;;;19.30;9.25;;;;;;;;;;8226013;28;20069;-70
2021/10/27 09:03:22;;;;;;;22.13;7.72;;;;;;;;;;8224815;28;20453;-71
2021/10/27 09:07:32;;;;;;;16.08;8.70;;;;;;;;;;8223807;28;20049;-71
2021/10/27 09:16:21;;;;;;;11.73;6.93;;;;;;;;;;8223499;28;20471;-73
2021/10/27 09:34:09;;;;;;;14.43;7.40;;;;;;;;;;8224181;28;20507;-72
2021/10/27 09:39:11;;;;;;;10.25;5.80;;;;;;;;;;8224375;28;20445;-72
2021/10/27 10:05:36;;;;;;;14.40;6.80;;;;;;;;;;8228568;28;20483;-73
2021/10/27 10:09:44;;;;;;;10.55;4.78;;;;;;;;;;8228076;28;20049;-71
2021/10/27 10:14:07;;;;;;;11.52;5.10;;;;;;;;;;8228897;28;20380;-71
2021/10/27 10:18:12;;;;;;;12.30;5.82;;;;;;;;;;8228983;28;20397;-72
2021/10/27 10:22:46;;;;;;;11.55;5.43;;;;;;;;;;8231233;28;20053;-71
2021/10/27 10:27:03;;;;;;;10.75;4.70;;;;;;;;;;8210006;28;20049;-73
2021/10/27 10:31:11;;;;;;;9.50;5.87;;;;;;;;;;8227769;28;20068;-72
2021/10/27 10:35:28;;;;;;;9.10;4.43;;;;;;;;;;8229697;28;20487;-71
2021/10/27 10:39:45;;;;;;;9.70;4.28;;;;;;;;;;8229410;28;20178;-69
2021/10/27 10:58:12;;;;;;;7.72;3.47;;;;;;;;;;8228339;28;20464;-71
2021/10/27 11:02:52;;;;;;;6.13;3.45;;;;;;;;;;8228857;28;20349;-71
2021/10/27 11:25:02;;;;;;;6.30;3.15;;;;;;;;;;8228792;28;20322;-71
2021/10/27 11:38:16;;;;;;;7.88;4.72;;;;;;;;;;8226161;28;20050;-72
2021/10/27 11:46:59;;;;;;;9.20;5.05;;;;;;;;;;8217513;28;20357;-70
2021/10/27 11:51:16;;;;;;;8.20;4.03;;;;;;;;;;8227756;28;20357;-71
2021/10/27 11:55:23;;;;;;;6.27;3.57;;;;;;;;;;8208711;28;20045;-71
2021/10/27 11:59:44;;;;;;;6.60;3.20;;;;;;;;;;8225611;28;20503;-70
2021/10/27 12:03:50;;;;;;;10.25;4.32;;;;;;;;;;8223549;28;20494;-69
2021/10/27 12:08:18;;;;;;;7.43;4.90;;;;;;;;;;8226002;28;20038;-70
2021/10/27 12:17:23;;;;;;;4.72;2.28;;;;;;;;;;8223840;28;20468;-71
2021/10/27 12:21:30;;;;;;;3.63;2.30;;;;;;;;;;8225199;28;20507;-71
2021/10/27 12:25:35;;;;;;;6.03;2.97;;;;;;;;;;8224208;28;20337;-72
2021/10/27 12:29:40;;;;;;;10.45;5.32;;;;;;;;;;8225023;28;20360;-71
2021/10/27 12:33:47;;;;;;;16.00;7.13;;;;;;;;;;8226385;28;20500;-70
2021/10/27 12:38:05;;;;;;;11.07;5.13;;;;;;;;;;8224585;28;20475;-70
2021/10/27 12:42:13;;;;;;;12.15;3.95;;;;;;;;;;8226423;28;20037;-70
2021/10/27 12:46:20;;;;;;;7.20;3.90;;;;;;;;;;8223174;28;20368;-72
2021/10/27 12:50:25;;;;;;;9.63;4.72;;;;;;;;;;8225681;28;20038;-70
2021/10/27 12:54:30;;;;;;;11.05;5.75;;;;;;;;;;8226154;28;20361;-71
2021/10/27 12:58:40;;;;;;;13.35;5.93;;;;;;;;;;8225580;28;20037;-69
2021/10/27 13:02:58;;;;;;;6.10;3.38;;;;;;;;;;8225653;28;20480;-70
2021/10/27 13:07:11;;;;;;;9.23;4.43;;;;;;;;;;8224593;28;20472;-68
2021/10/27 13:11:37;;;;;;;8.85;3.78;;;;;;;;;;8225004;28;20371;-69
2021/10/27 13:15:55;;;;;;;10.52;4.45;;;;;;;;;;8225029;28;20046;-69
2021/10/27 13:33:08;;;;;;;32.03;15.30;;;;;;;;;;8229638;28;20368;-69
2021/10/27 13:37:14;;;;;;;27.20;11.75;;;;;;;;;;8230872;28;20399;-68
2021/10/27 13:41:19;;;;;;;16.48;6.75;;;;;;;;;;8229966;28;20063;-70
2021/10/27 13:45:29;;;;;;;44.97;19.60;;;;;;;;;;8245864;28;20472;-68
2021/10/27 13:49:55;;;;;;;31.73;12.27;;;;;;;;;;8230787;28;20372;-69
2021/10/27 13:58:54;;;;;;;45.75;15.35;;;;;;;;;;8228713;28;20480;-69
2021/10/27 14:07:28;;;;;;;56.25;19.52;;;;;;;;;;8231079;28;20053;-69
2021/10/27 14:11:36;;;;;;;48.72;19.35;;;;;;;;;;8213010;28;20449;-70
2021/10/27 14:16:09;;;;;;;69.63;29.48;;;;;;;;;;8229917;28;20053;-70
2021/10/27 14:20:28;;;;;;;44.35;20.25;;;;;;;;;;8229699;28;20372;-70
2021/10/27 15:21:59;;;;;;;16.30;8.50;;;;;;;;;;8226230;28;20050;-70
2021/10/27 15:30:37;;;;;;;14.38;7.82;;;;;;;;;;8207155;28;20357;-72
2021/10/27 15:43:47;;;;;;;29.75;12.48;;;;;;;;;;8229363;28;20041;-71
2021/10/27 15:52:18;;;;;;;48.50;16.63;;;;;;;;;;8228309;28;20068;-71
2021/10/27 15:56:24;;;;;;;41.17;16.25;;;;;;;;;;8225311;28;20110;-70
2021/10/27 16:00:29;;;;;;;32.70;13.32;;;;;;;;;;8228517;28;20046;-70
2021/10/27 16:04:42;;;;;;;56.50;21.90;;;;;;;;;;8420219;27;20553;-70
2021/10/27 16:08:50;;;;;;;68.13;25.30;;;;;;;;;;8384194;28;20054;-69
2021/10/27 16:12:55;;;;;;;56.45;18.80;;;;;;;;;;8385927;28;20373;-69
2021/10/27 16:17:01;;;;;;;60.67;23.83;;;;;;;;;;8384132;28;20373;-70
2021/10/27 16:21:06;;;;;;;70.22;22.95;;;;;;;;;;8386917;28;20393;-69
2021/10/27 16:25:11;;;;;;;52.90;18.75;;;;;;;;;;8384695;28;20370;-69
2021/10/27 16:29:16;;;;;;;46.45;17.20;;;;;;;;;;8383335;28;20377;-68
2021/10/27 16:33:24;;;;;;;58.53;24.02;;;;;;;;;;8384782;28;20409;-69
2021/10/27 16:37:30;;;;;;;66.13;22.48;;;;;;;;;;8385341;28;20065;-70
2021/10/27 16:41:41;;;;;;;56.45;19.33;;;;;;;;;;8386107;28;20363;-71
2021/10/27 16:45:47;;;;;;;134.10;49.78;;;;;;;;;;8383067;28;20047;-70
2021/10/27 16:49:53;;;;;;;114.15;42.00;;;;;;;;;;8385044;28;20347;-70
2021/10/27 16:54:00;;;;;;;69.57;28.63;;;;;;;;;;8384840;28;20445;-69
2021/10/27 16:58:05;;;;;;;96.03;31.77;;;;;;;;;;8384960;28;20493;-68
2021/10/27 17:02:11;;;;;;;74.88;29.67;;;;;;;;;;8382244;28;20474;-69
2021/10/27 17:06:17;;;;;;;82.20;27.95;;;;;;;;;;8384015;28;20358;-68
2021/10/27 17:10:23;;;;;;;80.85;31.45;;;;;;;;;;8382229;28;20452;-69
2021/10/27 17:14:28;;;;;;;111.50;39.95;;;;;;;;;;8369537;28;20454;-69
2021/10/27 17:18:34;;;;;;;190.80;61.55;;;;;;;;;;8362667;28;20471;-69
2021/10/27 17:22:43;;;;;;;137.77;47.22;;;;;;;;;;8359422;28;20477;-70
2021/10/27 17:26:48;;;;;;;110.75;36.13;;;;;;;;;;8360191;28;20121;-70
2021/10/27 17:30:53;;;;;;;67.00;21.17;;;;;;;;;;8359063;28;20359;-71
2021/10/27 17:34:59;;;;;;;61.60;20.45;;;;;;;;;;8360646;28;20404;-69
2021/10/27 17:39:06;;;;;;;45.90;18.73;;;;;;;;;;8361378;28;20327;-71
2021/10/27 17:43:12;;;;;;;54.45;19.40;;;;;;;;;;8361365;28;20052;-69
2021/10/27 17:47:23;;;;;;;62.35;19.98;;;;;;;;;;8361167;28;20047;-71
2021/10/27 17:51:34;;;;;;;51.42;17.42;;;;;;;;;;8359616;28;20370;-69
2021/10/27 18:00:03;;;;;;;51.72;19.50;;;;;;;;;;8359900;28;20346;-70
2021/10/27 18:04:08;;;;;;;52.75;18.45;;;;;;;;;;8359187;28;20501;-70
2021/10/27 18:08:17;;;;;;;52.47;18.20;;;;;;;;;;8359675;28;20359;-71
2021/10/27 18:12:31;;;;;;;49.13;18.88;;;;;;;;;;8358557;28;20366;-69
2021/10/27 18:16:43;;;;;;;54.40;20.15;;;;;;;;;;8359046;28;20389;-70
2021/10/27 18:20:48;;;;;;;64.65;21.55;;;;;;;;;;8358332;28;20443;-71
2021/10/27 18:25:07;;;;;;;78.80;22.85;;;;;;;;;;8309782;28;20499;-69
2021/10/27 18:38:07;;;;;;;54.55;17.52;;;;;;;;;;8244225;28;20470;-70
2021/10/27 18:42:15;;;;;;;47.80;18.87;;;;;;;;;;8291336;28;20045;-69
2021/10/27 18:46:21;;;;;;;65.55;22.08;;;;;;;;;;8290044;28;20452;-69
2021/10/27 18:50:36;;;;;;;57.08;19.50;;;;;;;;;;8290479;28;20498;-71
2021/10/27 18:54:50;;;;;;;64.15;21.90;;;;;;;;;;8291792;28;20066;-70
2021/10/27 18:59:08;;;;;;;64.03;21.23;;;;;;;;;;8293560;28;20455;-70
2021/10/27 19:03:30;;;;;;;80.57;22.10;;;;;;;;;;8288287;28;20494;-69
2021/10/27 19:12:15;;;;;;;43.72;18.35;;;;;;;;;;8266426;28;20447;-69
2021/10/27 19:16:21;;;;;;;60.10;19.10;;;;;;;;;;8289364;28;20071;-69
2021/10/27 19:20:28;;;;;;;48.08;17.73;;;;;;;;;;8290538;28;20456;-70
2021/10/27 19:24:42;;;;;;;47.05;18.05;;;;;;;;;;8289104;28;20483;-69
2021/10/27 19:28:52;;;;;;;77.90;25.90;;;;;;;;;;8290787;28;20063;-68
2021/10/27 19:33:13;;;;;;;74.20;23.83;;;;;;;;;;8290105;28;20356;-71
2021/10/27 20:08:18;;;;;;;81.53;29.52;;;;;;;;;;8288332;28;20045;-71
2021/10/27 20:17:05;;;;;;;124.40;37.08;;;;;;;;;;8290046;28;20375;-70
2021/10/27 20:30:24;;;;;;;85.30;34.72;;;;;;;;;;8289904;28;20049;-70
2021/10/27 20:52:14;;;;;;;68.00;28.42;;;;;;;;;;8295762;28;20532;-70
2021/10/27 20:56:21;;;;;;;65.07;28.42;;;;;;;;;;8293906;28;20337;-70
2021/10/27 21:00:36;;;;;;;73.38;29.38;;;;;;;;;;8296110;28;20632;-70
2021/10/27 21:13:29;;;;;;;73.47;30.63;;;;;;;;;;8294956;28;20341;-69
2021/10/27 21:17:33;;;;;;;76.78;29.92;;;;;;;;;;8296393;28;20498;-70
2021/10/27 21:21:38;;;;;;;61.03;25.33;;;;;;;;;;8297185;28;20359;-70
2021/10/27 21:25:44;;;;;;;51.17;23.23;;;;;;;;;;8294757;28;20386;-70
2021/10/27 21:29:55;;;;;;;60.13;26.20;;;;;;;;;;8294142;28;20041;-69
2021/10/27 21:42:45;;;;;;;42.40;19.83;;;;;;;;;;8295725;28;20459;-70
2021/10/27 21:46:50;;;;;;;53.75;22.48;;;;;;;;;;8293693;28;20439;-69
2021/10/27 21:50:56;;;;;;;54.92;22.77;;;;;;;;;;8293846;28;20497;-70
2021/10/27 21:55:02;;;;;;;70.53;31.00;;;;;;;;;;8293759;28;20329;-69
2021/10/27 21:59:08;;;;;;;68.30;30.80;;;;;;;;;;8293389;28;20348;-71
2021/10/27 22:03:15;;;;;;;70.38;28.00;;;;;;;;;;8294230;28;20398;-70
2021/10/27 22:07:20;;;;;;;54.45;25.40;;;;;;;;;;8276632;28;20447;-70
2021/10/27 22:11:26;;;;;;;69.53;26.42;;;;;;;;;;8293922;28;20067;-70
2021/10/27 22:15:31;;;;;;;59.20;24.58;;;;;;;;;;8292851;28;20045;-69
2021/10/27 22:19:36;;;;;;;48.45;22.48;;;;;;;;;;8293225;28;20689;-69
2021/10/27 22:23:44;;;;;;;52.10;20.25;;;;;;;;;;8293562;28;20045;-71
2021/10/27 22:27:51;;;;;;;37.00;18.85;;;;;;;;;;8294581;28;20347;-69
2021/10/27 22:31:56;;;;;;;58.92;20.23;;;;;;;;;;8292174;28;20490;-69
2021/10/27 22:36:01;;;;;;;65.13;21.70;;;;;;;;;;8291684;28;20382;-69
2021/10/27 22:40:10;;;;;;;53.92;21.70;;;;;;;;;;8294216;28;20497;-71
2021/10/27 22:44:16;;;;;;;54.50;21.13;;;;;;;;;;8292518;28;20473;-70
2021/10/27 22:48:21;;;;;;;48.05;22.40;;;;;;;;;;8291457;28;20040;-70
2021/10/27 22:52:26;;;;;;;55.40;22.10;;;;;;;;;;8292864;28;20359;-69
2021/10/27 22:56:31;;;;;;;50.22;21.35;;;;;;;;;;8291151;28;20476;-69
2021/10/27 23:00:40;;;;;;;60.70;24.13;;;;;;;;;;8293230;28;20048;-69
2021/10/27 23:09:30;;;;;;;57.20;24.05;;;;;;;;;;8288354;28;20459;-70
2021/10/27 23:14:02;;;;;;;66.53;25.40;;;;;;;;;;8290637;28;20406;-70
2021/10/27 23:40:08;;;;;;;50.47;24.08;;;;;;;;;;8306205;28;20370;-69
2021/10/27 23:44:21;;;;;;;63.45;23.15;;;;;;;;;;8289752;28;20320;-71
2021/10/27 23:48:26;;;;;;;50.83;22.75;;;;;;;;;;8291806;28;20569;-70
2021/10/27 23:52:36;;;;;;;50.30;20.48;;;;;;;;;;8291125;28;20459;-69
2021/10/27 23:56:49;;;;;;;54.20;20.77;;;;;;;;;;8291458;28;20432;-70
